sensor_id;sensor_type;location;lat;lon;timestamp;pressure;altitude;pressure_sealevel;temperature;humidity
36380;BME280;22411;53.016;18.632;2022-09-23T00:01:53;101290.94;;;7.96;100.00
36380;BME280;22411;53.016;18.632;2022-09-23T00:04:19;101295.47;;;7.91;100.00
36380;BME280;22411;53.016;18.632;2022-09-23T00:06:45;101299.88;;;7.89;100.00
36380;BME280;22411;53.016;18.632;2022-09-23T00:09:11;101291.50;;;7.83;100.00
36380;BME280;22411;53.016;18.632;2022-09-23T00:11:37;101289.06;;;7.80;100.00
36380;BME280;22411;53.016;18.632;2022-09-23T00:14:02;101290.22;;;7.73;100.00
36380;BME280;22411;53.016;18.632;2022-09-23T00:16:33;101283.28;;;7.75;100.00
36380;BME280;22411;53.016;18.632;2022-09-23T00:19:02;101290.03;;;7.78;100.00
36380;BME280;22411;53.016;18.632;2022-09-23T00:21:28;101288.28;;;7.78;100.00
36380;BME280;22411;53.016;18.632;2022-09-23T00:23:54;101285.00;;;7.75;100.00
36380;BME280;22411;53.016;18.632;2022-09-23T00:26:21;101287.09;;;7.67;100.00
36380;BME280;22411;53.016;18.632;2022-09-23T00:28:48;101286.44;;;7.62;100.00
36380;BME280;22411;53.016;18.632;2022-09-23T00:31:20;101290.13;;;7.56;100.00
36380;BME280;22411;53.016;18.632;2022-09-23T00:34:00;101278.28;;;7.52;100.00
36380;BME280;22411;53.016;18.632;2022-09-23T00:36:27;101281.97;;;7.46;100.00
36380;BME280;22411;53.016;18.632;2022-09-23T00:38:53;101284.59;;;7.45;100.00
36380;BME280;22411;53.016;18.632;2022-09-23T00:41:20;101281.84;;;7.49;100.00
36380;BME280;22411;53.016;18.632;2022-09-23T00:43:57;101285.63;;;7.41;100.00
36380;BME280;22411;53.016;18.632;2022-09-23T00:46:33;101282.69;;;7.29;100.00
36380;BME280;22411;53.016;18.632;2022-09-23T00:49:14;101279.72;;;7.18;100.00
36380;BME280;22411;53.016;18.632;2022-09-23T00:51:52;101277.44;;;7.11;100.00
36380;BME280;22411;53.016;18.632;2022-09-23T00:54:21;101276.78;;;7.05;100.00
36380;BME280;22411;53.016;18.632;2022-09-23T00:56:48;101279.63;;;6.99;100.00
36380;BME280;22411;53.016;18.632;2022-09-23T00:59:15;101284.06;;;6.96;100.00
36380;BME280;22411;53.016;18.632;2022-09-23T01:01:42;101289.38;;;6.93;100.00
36380;BME280;22411;53.016;18.632;2022-09-23T01:04:08;101281.63;;;6.93;100.00
36380;BME280;22411;53.016;18.632;2022-09-23T01:06:34;101276.41;;;6.94;100.00
36380;BME280;22411;53.016;18.632;2022-09-23T01:09:01;101277.84;;;7.01;100.00
36380;BME280;22411;53.016;18.632;2022-09-23T01:19:52;101277.84;;;7.01;100.00
36380;BME280;22411;53.016;18.632;2022-09-23T01:22:33;101272.03;;;6.96;100.00
36380;BME280;22411;53.016;18.632;2022-09-23T01:25:23;101279.13;;;6.91;100.00
36380;BME280;22411;53.016;18.632;2022-09-23T01:27:56;101279.41;;;6.84;100.00
36380;BME280;22411;53.016;18.632;2022-09-23T01:33:35;101283.75;;;6.61;100.00
36380;BME280;22411;53.016;18.632;2022-09-23T01:38:41;101282.69;;;6.67;100.00
36380;BME280;22411;53.016;18.632;2022-09-23T01:46:40;101278.69;;;6.60;100.00
36380;BME280;22411;53.016;18.632;2022-09-23T01:49:31;101271.06;;;6.57;100.00
36380;BME280;22411;53.016;18.632;2022-09-23T01:54:36;101272.88;;;6.54;100.00
36380;BME280;22411;53.016;18.632;2022-09-23T01:57:14;101265.19;;;6.53;100.00
36380;BME280;22411;53.016;18.632;2022-09-23T01:59:49;101269.22;;;6.60;100.00
36380;BME280;22411;53.016;18.632;2022-09-23T02:02:26;101265.56;;;6.66;100.00
36380;BME280;22411;53.016;18.632;2022-09-23T02:05:07;101268.81;;;6.69;100.00
36380;BME280;22411;53.016;18.632;2022-09-23T02:10:14;101258.53;;;6.69;100.00
36380;BME280;22411;53.016;18.632;2022-09-23T02:12:45;101266.38;;;6.66;100.00
36380;BME280;22411;53.016;18.632;2022-09-23T02:15:18;101270.72;;;6.66;100.00
36380;BME280;22411;53.016;18.632;2022-09-23T02:17:50;101269.88;;;6.65;100.00
36380;BME280;22411;53.016;18.632;2022-09-23T02:20:22;101271.66;;;6.63;100.00
36380;BME280;22411;53.016;18.632;2022-09-23T02:23:02;101270.88;;;6.61;100.00
36380;BME280;22411;53.016;18.632;2022-09-23T02:25:51;101267.47;;;6.61;100.00
36380;BME280;22411;53.016;18.632;2022-09-23T02:28:26;101261.47;;;6.60;100.00
36380;BME280;22411;53.016;18.632;2022-09-23T02:31:06;101266.63;;;6.60;100.00
36380;BME280;22411;53.016;18.632;2022-09-23T02:33:42;101265.84;;;6.58;100.00
36380;BME280;22411;53.016;18.632;2022-09-23T02:36:43;101256.59;;;6.54;100.00
36380;BME280;22411;53.016;18.632;2022-09-23T02:39:12;101255.72;;;6.53;100.00
36380;BME280;22411;53.016;18.632;2022-09-23T02:41:45;101261.91;;;6.49;100.00
36380;BME280;22411;53.016;18.632;2022-09-23T02:44:18;101254.53;;;6.40;100.00
36380;BME280;22411;53.016;18.632;2022-09-23T02:46:45;101256.63;;;6.31;100.00
36380;BME280;22411;53.016;18.632;2022-09-23T02:49:20;101256.56;;;6.32;100.00
36380;BME280;22411;53.016;18.632;2022-09-23T02:51:47;101252.25;;;6.33;100.00
36380;BME280;22411;53.016;18.632;2022-09-23T02:54:18;101251.41;;;6.32;100.00
36380;BME280;22411;53.016;18.632;2022-09-23T02:56:45;101246.25;;;6.32;100.00
36380;BME280;22411;53.016;18.632;2022-09-23T02:59:16;101251.41;;;6.32;100.00
36380;BME280;22411;53.016;18.632;2022-09-23T03:07:18;101241.34;;;6.26;100.00
36380;BME280;22411;53.016;18.632;2022-09-23T03:09:56;101243.22;;;6.22;100.00
36380;BME280;22411;53.016;18.632;2022-09-23T03:15:25;101240.03;;;6.16;100.00
36380;BME280;22411;53.016;18.632;2022-09-23T03:20:50;101241.84;;;6.14;100.00
36380;BME280;22411;53.016;18.632;2022-09-23T03:23:23;101244.34;;;6.15;100.00
36380;BME280;22411;53.016;18.632;2022-09-23T03:25:52;101243.66;;;6.12;100.00
36380;BME280;22411;53.016;18.632;2022-09-23T03:28:20;101242.00;;;6.09;100.00
36380;BME280;22411;53.016;18.632;2022-09-23T03:30:49;101241.09;;;6.10;100.00
36380;BME280;22411;53.016;18.632;2022-09-23T03:33:17;101244.69;;;6.06;100.00
36380;BME280;22411;53.016;18.632;2022-09-23T03:35:51;101229.22;;;6.08;100.00
36380;BME280;22411;53.016;18.632;2022-09-23T03:38:36;101231.94;;;6.03;100.00
36380;BME280;22411;53.016;18.632;2022-09-23T03:41:09;101231.16;;;6.01;100.00
36380;BME280;22411;53.016;18.632;2022-09-23T03:43:35;101232.19;;;5.97;100.00
36380;BME280;22411;53.016;18.632;2022-09-23T03:46:02;101232.34;;;5.92;100.00
36380;BME280;22411;53.016;18.632;2022-09-23T03:48:27;101241.81;;;5.92;100.00
36380;BME280;22411;53.016;18.632;2022-09-23T03:50:53;101236.66;;;5.90;100.00
36380;BME280;22411;53.016;18.632;2022-09-23T03:53:19;101234.28;;;5.86;100.00
36380;BME280;22411;53.016;18.632;2022-09-23T03:55:46;101232.66;;;5.83;100.00
36380;BME280;22411;53.016;18.632;2022-09-23T03:58:13;101231.88;;;5.81;100.00
36380;BME280;22411;53.016;18.632;2022-09-23T04:00:39;101237.97;;;5.78;100.00
36380;BME280;22411;53.016;18.632;2022-09-23T04:03:05;101230.41;;;5.74;100.00
36380;BME280;22411;53.016;18.632;2022-09-23T04:05:30;101229.66;;;5.72;100.00
36380;BME280;22411;53.016;18.632;2022-09-23T04:07:56;101232.38;;;5.67;100.00
36380;BME280;22411;53.016;18.632;2022-09-23T04:10:22;101231.66;;;5.64;100.00
36380;BME280;22411;53.016;18.632;2022-09-23T04:12:48;101231.72;;;5.62;100.00
36380;BME280;22411;53.016;18.632;2022-09-23T04:15:14;101230.94;;;5.60;100.00
36380;BME280;22411;53.016;18.632;2022-09-23T04:17:40;101229.44;;;5.55;100.00
36380;BME280;22411;53.016;18.632;2022-09-23T04:20:06;101228.69;;;5.51;100.00
36380;BME280;22411;53.016;18.632;2022-09-23T04:22:33;101226.13;;;5.51;100.00
36380;BME280;22411;53.016;18.632;2022-09-23T04:24:59;101228.75;;;5.49;100.00
36380;BME280;22411;53.016;18.632;2022-09-23T04:27:25;101229.59;;;5.50;100.00
36380;BME280;22411;53.016;18.632;2022-09-23T04:29:51;101230.41;;;5.50;100.00
36380;BME280;22411;53.016;18.632;2022-09-23T04:32:17;101226.94;;;5.51;100.00
36380;BME280;22411;53.016;18.632;2022-09-23T04:34:43;101227.91;;;5.49;100.00
36380;BME280;22411;53.016;18.632;2022-09-23T04:37:09;101232.25;;;5.47;100.00
36380;BME280;22411;53.016;18.632;2022-09-23T04:39:35;101231.47;;;5.45;100.00
36380;BME280;22411;53.016;18.632;2022-09-23T04:42:01;101229.75;;;5.45;100.00
36380;BME280;22411;53.016;18.632;2022-09-23T04:44:28;101228.06;;;5.44;100.00
36380;BME280;22411;53.016;18.632;2022-09-23T04:46:54;101228.91;;;5.45;100.00
36380;BME280;22411;53.016;18.632;2022-09-23T04:49:20;101236.63;;;5.45;100.00
36380;BME280;22411;53.016;18.632;2022-09-23T04:51:46;101228.91;;;5.45;100.00
36380;BME280;22411;53.016;18.632;2022-09-23T04:54:12;101229.75;;;5.45;100.00
36380;BME280;22411;53.016;18.632;2022-09-23T04:56:42;101230.59;;;5.46;100.00
36380;BME280;22411;53.016;18.632;2022-09-23T04:59:08;101234.78;;;5.48;100.00
36380;BME280;22411;53.016;18.632;2022-09-23T05:01:35;101233.09;;;5.47;100.00
36380;BME280;22411;53.016;18.632;2022-09-23T05:04:05;101227.09;;;5.48;100.00
36380;BME280;22411;53.016;18.632;2022-09-23T05:06:32;101236.56;;;5.46;100.00
36380;BME280;22411;53.016;18.632;2022-09-23T05:09:04;101223.72;;;5.46;100.00
36380;BME280;22411;53.016;18.632;2022-09-23T05:11:30;101234.81;;;5.47;100.00
36380;BME280;22411;53.016;18.632;2022-09-23T05:13:57;101238.19;;;5.49;100.00
36380;BME280;22411;53.016;18.632;2022-09-23T05:16:23;101226.06;;;5.53;100.00
36380;BME280;22411;53.016;18.632;2022-09-23T05:18:50;101227.72;;;5.54;100.00
36380;BME280;22411;53.016;18.632;2022-09-23T05:21:19;101231.88;;;5.58;100.00
36380;BME280;22411;53.016;18.632;2022-09-23T05:23:50;101224.13;;;5.59;100.00
36380;BME280;22411;53.016;18.632;2022-09-23T05:26:21;101229.94;;;5.64;100.00
36380;BME280;22411;53.016;18.632;2022-09-23T05:28:49;101228.97;;;5.67;100.00
36380;BME280;22411;53.016;18.632;2022-09-23T05:31:18;101231.53;;;5.67;100.00
36380;BME280;22411;53.016;18.632;2022-09-23T05:33:48;101227.16;;;5.69;100.00
36380;BME280;22411;53.016;18.632;2022-09-23T05:36:17;101233.81;;;5.74;100.00
36380;BME280;22411;53.016;18.632;2022-09-23T05:38:48;101231.06;;;5.81;100.00
36380;BME280;22411;53.016;18.632;2022-09-23T05:41:14;101234.31;;;5.84;100.00
36380;BME280;22411;53.016;18.632;2022-09-23T05:43:41;101231.53;;;5.90;100.00
36380;BME280;22411;53.016;18.632;2022-09-23T05:46:11;101230.38;;;5.99;100.00
36380;BME280;22411;53.016;18.632;2022-09-23T05:48:39;101227.56;;;6.05;100.00
36380;BME280;22411;53.016;18.632;2022-09-23T05:51:06;101231.53;;;6.14;100.00
36380;BME280;22411;53.016;18.632;2022-09-23T05:53:38;101231.53;;;6.14;100.00
36380;BME280;22411;53.016;18.632;2022-09-23T05:56:05;101233.03;;;6.19;100.00
36380;BME280;22411;53.016;18.632;2022-09-23T05:58:31;101233.63;;;6.26;100.00
36380;BME280;22411;53.016;18.632;2022-09-23T06:00:57;101233.53;;;6.29;100.00
36380;BME280;22411;53.016;18.632;2022-09-23T06:03:24;101235.19;;;6.30;100.00
36380;BME280;22411;53.016;18.632;2022-09-23T06:05:54;101237.53;;;6.36;100.00
36380;BME280;22411;53.016;18.632;2022-09-23T06:08:23;101235.59;;;6.41;100.00
36380;BME280;22411;53.016;18.632;2022-09-23T06:10:50;101250.72;;;6.50;100.00
36380;BME280;22411;53.016;18.632;2022-09-23T06:13:16;101242.81;;;6.55;100.00
36380;BME280;22411;53.016;18.632;2022-09-23T06:15:42;101241.66;;;6.62;100.00
36380;BME280;22411;53.016;18.632;2022-09-23T06:18:10;101237.91;;;6.69;100.00
36380;BME280;22411;53.016;18.632;2022-09-23T06:20:37;101239.16;;;6.81;100.00
36380;BME280;22411;53.016;18.632;2022-09-23T06:23:04;101244.97;;;6.86;100.00
36380;BME280;22411;53.016;18.632;2022-09-23T06:25:32;101243.09;;;6.90;100.00
36380;BME280;22411;53.016;18.632;2022-09-23T06:27:58;101246.19;;;6.98;100.00
36380;BME280;22411;53.016;18.632;2022-09-23T06:30:25;101249.28;;;7.06;100.00
36380;BME280;22411;53.016;18.632;2022-09-23T06:32:53;101247.50;;;7.08;100.00
36380;BME280;22411;53.016;18.632;2022-09-23T06:35:21;101246.78;;;7.04;100.00
36380;BME280;22411;53.016;18.632;2022-09-23T06:37:48;101254.31;;;7.09;100.00
36380;BME280;22411;53.016;18.632;2022-09-23T06:40:14;101251.66;;;7.11;100.00
36380;BME280;22411;53.016;18.632;2022-09-23T06:42:40;101245.38;;;7.18;100.00
36380;BME280;22411;53.016;18.632;2022-09-23T06:45:09;101249.34;;;7.25;100.00
36380;BME280;22411;53.016;18.632;2022-09-23T06:47:38;101250.75;;;7.32;100.00
36380;BME280;22411;53.016;18.632;2022-09-23T06:50:05;101252.00;;;7.44;100.00
36380;BME280;22411;53.016;18.632;2022-09-23T06:52:31;101258.28;;;7.57;100.00
36380;BME280;22411;53.016;18.632;2022-09-23T06:54:57;101255.22;;;7.68;100.00
36380;BME280;22411;53.016;18.632;2022-09-23T06:57:23;101256.38;;;7.81;100.00
36380;BME280;22411;53.016;18.632;2022-09-23T06:59:49;101252.38;;;7.93;100.00
36380;BME280;22411;53.016;18.632;2022-09-23T07:02:15;101259.63;;;8.03;100.00
36380;BME280;22411;53.016;18.632;2022-09-23T07:04:41;101258.44;;;8.10;100.00
36380;BME280;22411;53.016;18.632;2022-09-23T07:07:07;101246.97;;;8.16;100.00
36380;BME280;22411;53.016;18.632;2022-09-23T07:09:34;101251.03;;;8.22;100.00
36380;BME280;22411;53.016;18.632;2022-09-23T07:12:01;101250.69;;;8.29;100.00
36380;BME280;22411;53.016;18.632;2022-09-23T07:14:27;101256.91;;;8.44;100.00
36380;BME280;22411;53.016;18.632;2022-09-23T07:16:53;101255.41;;;8.57;100.00
36380;BME280;22411;53.016;18.632;2022-09-23T07:19:19;101257.31;;;8.71;100.00
36380;BME280;22411;53.016;18.632;2022-09-23T07:21:45;101247.13;;;8.85;100.00
36380;BME280;22411;53.016;18.632;2022-09-23T07:24:10;101245.72;;;8.97;100.00
36380;BME280;22411;53.016;18.632;2022-09-23T07:26:36;101246.06;;;9.07;100.00
36380;BME280;22411;53.016;18.632;2022-09-23T07:29:02;101250.78;;;9.16;100.00
36380;BME280;22411;53.016;18.632;2022-09-23T07:31:32;101240.09;;;9.22;100.00
36380;BME280;22411;53.016;18.632;2022-09-23T07:33:59;101244.81;;;9.31;100.00
36380;BME280;22411;53.016;18.632;2022-09-23T07:36:28;101252.63;;;9.47;100.00
36380;BME280;22411;53.016;18.632;2022-09-23T07:38:58;101252.06;;;9.58;100.00
36380;BME280;22411;53.016;18.632;2022-09-23T07:41:29;101249.16;;;9.64;100.00
36380;BME280;22411;53.016;18.632;2022-09-23T07:43:57;101250.44;;;9.73;100.00
36380;BME280;22411;53.016;18.632;2022-09-23T07:46:26;101244.53;;;9.86;100.00
36380;BME280;22411;53.016;18.632;2022-09-23T07:48:53;101249.13;;;9.97;100.00
36380;BME280;22411;53.016;18.632;2022-09-23T07:51:27;101250.94;;;10.11;100.00
36380;BME280;22411;53.016;18.632;2022-09-23T07:53:55;101255.72;;;10.18;100.00
36380;BME280;22411;53.016;18.632;2022-09-23T07:56:25;101254.50;;;10.26;100.00
36380;BME280;22411;53.016;18.632;2022-09-23T07:58:51;101244.56;;;10.34;100.00
36380;BME280;22411;53.016;18.632;2022-09-23T08:01:48;101248.78;;;10.51;100.00
36380;BME280;22411;53.016;18.632;2022-09-23T08:04:24;101237.56;;;10.66;100.00
36380;BME280;22411;53.016;18.632;2022-09-23T08:06:52;101246.19;;;10.81;100.00
36380;BME280;22411;53.016;18.632;2022-09-23T08:09:20;101242.91;;;10.93;100.00
36380;BME280;22411;53.016;18.632;2022-09-23T08:11:47;101242.28;;;11.04;100.00
36380;BME280;22411;53.016;18.632;2022-09-23T08:14:14;101246.63;;;11.17;100.00
36380;BME280;22411;53.016;18.632;2022-09-23T08:16:43;101248.25;;;11.34;100.00
36380;BME280;22411;53.016;18.632;2022-09-23T08:19:11;101246.59;;;11.47;100.00
36380;BME280;22411;53.016;18.632;2022-09-23T08:21:37;101246.03;;;11.57;100.00
36380;BME280;22411;53.016;18.632;2022-09-23T08:24:09;101239.19;;;11.56;100.00
36380;BME280;22411;53.016;18.632;2022-09-23T08:26:36;101232.50;;;11.66;100.00
36380;BME280;22411;53.016;18.632;2022-09-23T08:29:03;101239.00;;;11.87;100.00
36380;BME280;22411;53.016;18.632;2022-09-23T08:31:29;101241.53;;;12.01;100.00
36380;BME280;22411;53.016;18.632;2022-09-23T08:33:57;101235.53;;;12.28;100.00
36380;BME280;22411;53.016;18.632;2022-09-23T08:36:24;101235.09;;;12.48;100.00
36380;BME280;22411;53.016;18.632;2022-09-23T08:38:50;101234.31;;;12.61;100.00
36380;BME280;22411;53.016;18.632;2022-09-23T08:43:57;101237.28;;;13.07;100.00
36380;BME280;22411;53.016;18.632;2022-09-23T08:46:45;101236.38;;;13.08;100.00
36380;BME280;22411;53.016;18.632;2022-09-23T08:49:23;101234.16;;;13.02;100.00
36380;BME280;22411;53.016;18.632;2022-09-23T08:51:51;101234.69;;;13.20;100.00
36380;BME280;22411;53.016;18.632;2022-09-23T08:54:19;101236.47;;;13.32;100.00
36380;BME280;22411;53.016;18.632;2022-09-23T08:56:49;101233.47;;;13.51;100.00
36380;BME280;22411;53.016;18.632;2022-09-23T09:01:58;101232.94;;;13.95;100.00
36380;BME280;22411;53.016;18.632;2022-09-23T09:09:50;101233.81;;;14.68;100.00
36380;BME280;22411;53.016;18.632;2022-09-23T09:12:26;101230.22;;;15.04;100.00
36380;BME280;22411;53.016;18.632;2022-09-23T09:15:10;101235.59;;;15.36;100.00
36380;BME280;22411;53.016;18.632;2022-09-23T09:17:59;101232.16;;;15.80;100.00
36380;BME280;22411;53.016;18.632;2022-09-23T09:23:57;101230.69;;;16.42;94.88
36380;BME280;22411;53.016;18.632;2022-09-23T09:26:20;101226.00;;;16.57;93.69
36380;BME280;22411;53.016;18.632;2022-09-23T09:28:50;101218.88;;;16.80;91.61
36380;BME280;22411;53.016;18.632;2022-09-23T09:34:34;101222.56;;;17.19;86.16
36380;BME280;22411;53.016;18.632;2022-09-23T09:37:42;101221.03;;;17.47;84.67
36380;BME280;22411;53.016;18.632;2022-09-23T09:40:12;101215.84;;;17.66;84.04
36380;BME280;22411;53.016;18.632;2022-09-23T09:42:41;101215.06;;;17.75;82.89
36380;BME280;22411;53.016;18.632;2022-09-23T09:45:25;101214.25;;;17.75;83.59
36380;BME280;22411;53.016;18.632;2022-09-23T09:48:13;101217.69;;;17.45;79.85
36380;BME280;22411;53.016;18.632;2022-09-23T09:53:26;101210.91;;;17.33;79.22
36380;BME280;22411;53.016;18.632;2022-09-23T09:56:13;101208.66;;;18.28;76.71
36380;BME280;22411;53.016;18.632;2022-09-23T10:01:24;101214.88;;;17.58;76.11
36380;BME280;22411;53.016;18.632;2022-09-23T10:03:53;101206.75;;;17.30;80.76
36380;BME280;22411;53.016;18.632;2022-09-23T10:06:25;101193.44;;;17.12;82.93
36380;BME280;22411;53.016;18.632;2022-09-23T10:11:30;101190.16;;;17.60;76.79
36380;BME280;22411;53.016;18.632;2022-09-23T10:16:31;101185.47;;;18.43;77.52
36380;BME280;22411;53.016;18.632;2022-09-23T10:18:59;101191.00;;;18.69;74.09
36380;BME280;22411;53.016;18.632;2022-09-23T10:21:31;101191.28;;;18.37;72.49
36380;BME280;22411;53.016;18.632;2022-09-23T10:24:00;101189.75;;;18.34;74.85
36380;BME280;22411;53.016;18.632;2022-09-23T10:26:30;101200.63;;;17.91;74.34
36380;BME280;22411;53.016;18.632;2022-09-23T10:28:57;101191.97;;;18.68;72.55
36380;BME280;22411;53.016;18.632;2022-09-23T10:31:34;101188.25;;;19.45;68.59
36380;BME280;22411;53.016;18.632;2022-09-23T10:34:02;101181.72;;;19.49;67.84
36380;BME280;22411;53.016;18.632;2022-09-23T10:36:31;101183.34;;;18.85;69.18
36380;BME280;22411;53.016;18.632;2022-09-23T10:39:04;101173.88;;;18.16;69.28
36380;BME280;22411;53.016;18.632;2022-09-23T10:42:02;101179.38;;;18.13;70.04
36380;BME280;22411;53.016;18.632;2022-09-23T10:45:27;101169.19;;;19.05;68.26
36380;BME280;22411;53.016;18.632;2022-09-23T10:48:32;101167.91;;;19.92;65.48
36380;BME280;22411;53.016;18.632;2022-09-23T10:51:07;101162.25;;;20.58;62.51
36380;BME280;22411;53.016;18.632;2022-09-23T10:56:35;101162.66;;;20.98;61.58
36380;BME280;22411;53.016;18.632;2022-09-23T10:59:26;101163.63;;;20.88;63.64
36380;BME280;22411;53.016;18.632;2022-09-23T11:07:38;101155.91;;;20.95;58.64
36380;BME280;22411;53.016;18.632;2022-09-23T11:22:00;101144.31;;;23.03;49.10
36380;BME280;22411;53.016;18.632;2022-09-23T11:30:07;101148.66;;;24.35;40.61
36380;BME280;22411;53.016;18.632;2022-09-23T11:35:26;101133.84;;;22.46;45.20
36380;BME280;22411;53.016;18.632;2022-09-23T11:37:57;101137.16;;;22.24;46.20
36380;BME280;22411;53.016;18.632;2022-09-23T11:40:30;101128.34;;;21.58;47.99
36380;BME280;22411;53.016;18.632;2022-09-23T11:43:04;101130.97;;;20.81;50.42
36380;BME280;22411;53.016;18.632;2022-09-23T11:48:26;101123.72;;;19.60;54.52
36380;BME280;22411;53.016;18.632;2022-09-23T11:50:57;101116.97;;;18.26;57.04
36380;BME280;22411;53.016;18.632;2022-09-23T11:53:51;101111.47;;;18.00;58.87
36380;BME280;22411;53.016;18.632;2022-09-23T11:56:26;101107.31;;;18.08;60.55
36380;BME280;22411;53.016;18.632;2022-09-23T11:59:02;101103.88;;;18.17;59.81
36380;BME280;22411;53.016;18.632;2022-09-23T12:01:40;101106.91;;;18.12;61.01
36380;BME280;22411;53.016;18.632;2022-09-23T12:04:27;101102.63;;;18.11;62.28
36380;BME280;22411;53.016;18.632;2022-09-23T12:07:11;101094.84;;;18.39;62.39
36380;BME280;22411;53.016;18.632;2022-09-23T12:10:02;101095.66;;;18.49;61.86
36380;BME280;22411;53.016;18.632;2022-09-23T12:15:20;101090.59;;;18.38;61.26
36380;BME280;22411;53.016;18.632;2022-09-23T12:18:00;101082.72;;;18.18;63.28
36380;BME280;22411;53.016;18.632;2022-09-23T12:23:47;101078.47;;;17.98;63.82
36380;BME280;22411;53.016;18.632;2022-09-23T12:26:22;101076.69;;;17.89;63.00
36380;BME280;22411;53.016;18.632;2022-09-23T12:28:58;101076.81;;;17.87;61.54
36380;BME280;22411;53.016;18.632;2022-09-23T12:31:27;101071.72;;;17.95;63.45
36380;BME280;22411;53.016;18.632;2022-09-23T12:33:59;101071.69;;;18.24;61.68
36380;BME280;22411;53.016;18.632;2022-09-23T12:36:32;101062.91;;;20.43;54.00
36380;BME280;22411;53.016;18.632;2022-09-23T12:39:36;101071.34;;;21.14;51.60
36380;BME280;22411;53.016;18.632;2022-09-23T12:42:15;101070.00;;;21.69;49.57
36380;BME280;22411;53.016;18.632;2022-09-23T12:44:44;101072.63;;;22.02;49.02
36380;BME280;22411;53.016;18.632;2022-09-23T12:49:51;101072.06;;;20.91;48.31
36380;BME280;22411;53.016;18.632;2022-09-23T12:54:48;101055.78;;;19.38;52.75
36380;BME280;22411;53.016;18.632;2022-09-23T13:02:40;101055.91;;;18.34;57.96
36380;BME280;22411;53.016;18.632;2022-09-23T13:08:11;101046.63;;;17.93;60.00
36380;BME280;22411;53.016;18.632;2022-09-23T13:10:55;101042.13;;;18.32;59.18
36380;BME280;22411;53.016;18.632;2022-09-23T13:13:38;101044.34;;;18.17;57.86
36380;BME280;22411;53.016;18.632;2022-09-23T13:16:25;101040.44;;;18.41;57.42
36380;BME280;22411;53.016;18.632;2022-09-23T13:18:56;101039.03;;;18.56;57.66
36380;BME280;22411;53.016;18.632;2022-09-23T13:26:52;101025.94;;;19.11;56.41
36380;BME280;22411;53.016;18.632;2022-09-23T13:29:27;101033.16;;;19.27;53.67
36380;BME280;22411;53.016;18.632;2022-09-23T13:31:56;101033.59;;;19.68;52.93
36380;BME280;22411;53.016;18.632;2022-09-23T13:34:27;101026.00;;;20.34;52.20
36380;BME280;22411;53.016;18.632;2022-09-23T13:36:55;101028.59;;;20.52;50.84
36380;BME280;22411;53.016;18.632;2022-09-23T13:39:27;101018.72;;;20.46;51.18
36380;BME280;22411;53.016;18.632;2022-09-23T13:41:58;101016.50;;;20.68;51.58
36380;BME280;22411;53.016;18.632;2022-09-23T13:44:26;101012.06;;;20.68;50.46
36380;BME280;22411;53.016;18.632;2022-09-23T13:46:56;101016.44;;;20.59;50.58
36380;BME280;22411;53.016;18.632;2022-09-23T13:49:26;101013.25;;;20.22;50.65
36380;BME280;22411;53.016;18.632;2022-09-23T13:51:54;101004.69;;;19.94;51.74
36380;BME280;22411;53.016;18.632;2022-09-23T13:56:57;100991.84;;;20.43;50.26
36380;BME280;22411;53.016;18.632;2022-09-23T13:59:29;100995.19;;;20.95;48.43
36380;BME280;22411;53.016;18.632;2022-09-23T14:02:10;100996.78;;;21.38;47.71
36380;BME280;22411;53.016;18.632;2022-09-23T14:04:37;100996.78;;;21.30;47.02
36380;BME280;22411;53.016;18.632;2022-09-23T14:07:03;100994.72;;;21.00;46.61
36380;BME280;22411;53.016;18.632;2022-09-23T14:09:32;100992.13;;;20.66;47.53
36380;BME280;22411;53.016;18.632;2022-09-23T14:12:04;100986.66;;;20.25;47.35
36380;BME280;22411;53.016;18.632;2022-09-23T14:14:34;100990.34;;;18.99;47.97
36380;BME280;22411;53.016;18.632;2022-09-23T14:17:03;100985.97;;;18.15;50.82
36380;BME280;22411;53.016;18.632;2022-09-23T14:19:30;100988.22;;;17.71;52.94
36380;BME280;22411;53.016;18.632;2022-09-23T14:21:57;100984.09;;;17.59;54.06
36380;BME280;22411;53.016;18.632;2022-09-23T14:24:32;100984.63;;;17.43;54.65
36380;BME280;22411;53.016;18.632;2022-09-23T14:29:34;100975.38;;;17.39;55.60
36380;BME280;22411;53.016;18.632;2022-09-23T14:32:10;100974.16;;;17.53;56.52
36380;BME280;22411;53.016;18.632;2022-09-23T14:40:21;100969.72;;;18.39;52.77
36380;BME280;22411;53.016;18.632;2022-09-23T14:42:55;100964.63;;;18.65;52.98
36380;BME280;22411;53.016;18.632;2022-09-23T14:45:27;100963.13;;;18.72;52.71
36380;BME280;22411;53.016;18.632;2022-09-23T14:48:00;100962.06;;;18.18;52.31
36380;BME280;22411;53.016;18.632;2022-09-23T14:50:28;100958.19;;;17.46;53.84
36380;BME280;22411;53.016;18.632;2022-09-23T14:58:56;100958.25;;;16.96;56.91
36380;BME280;22411;53.016;18.632;2022-09-23T15:03:57;100949.31;;;17.18;57.91
36380;BME280;22411;53.016;18.632;2022-09-23T15:06:23;100947.41;;;17.11;58.71
36380;BME280;22411;53.016;18.632;2022-09-23T15:08:54;100944.78;;;17.59;57.70
36380;BME280;22411;53.016;18.632;2022-09-23T15:11:21;100947.13;;;18.28;56.16
36380;BME280;22411;53.016;18.632;2022-09-23T15:13:51;100950.84;;;19.08;53.61
36380;BME280;22411;53.016;18.632;2022-09-23T15:16:26;100943.50;;;19.92;51.10
36380;BME280;22411;53.016;18.632;2022-09-23T15:18:54;100941.78;;;20.69;48.77